Time;durP1;ratioP1;P1;durP2;ratioP2;P2;SDS_P1;SDS_P2;PMS_P1;PMS_P2;Temp;Humidity;BMP_temperature;BMP_pressure;BME280_temperature;BME280_humidity;BME280_pressure;Samples;Min_cycle;Max_cycle;Signal;HPM_P1;HPM_P2
2022/04/13 00:01:37;;;;;;;6.83;3.40;;;15.20;99.90;;;;;;5054655;28;20507;-67
2022/04/13 00:04:03;;;;;;;7.40;3.60;;;15.10;99.90;;;;;;5054966;28;20025;-66
2022/04/13 00:06:28;;;;;;;6.80;3.40;;;15.10;99.90;;;;;;5055020;28;20025;-67
2022/04/13 00:08:55;;;;;;;8.15;3.78;;;15.00;99.90;;;;;;5055238;28;20446;-66
2022/04/13 00:11:22;;;;;;;6.03;4.07;;;14.90;99.90;;;;;;5055845;28;20021;-66
2022/04/13 00:13:47;;;;;;;7.97;3.50;;;14.90;99.90;;;;;;5054763;28;20068;-66
2022/04/13 00:16:13;;;;;;;6.23;3.60;;;14.80;99.90;;;;;;5055271;28;20036;-67
2022/04/13 00:18:39;;;;;;;5.78;3.33;;;14.80;99.90;;;;;;5054621;28;20345;-66
2022/04/13 00:21:05;;;;;;;7.00;3.10;;;14.70;99.90;;;;;;5054454;28;20036;-67
2022/04/13 00:23:31;;;;;;;6.38;3.35;;;14.70;99.90;;;;;;5054216;28;20028;-66
2022/04/13 00:25:58;;;;;;;7.20;3.33;;;14.80;99.90;;;;;;5054600;28;20032;-66
2022/04/13 00:28:24;;;;;;;5.90;3.17;;;14.70;99.90;;;;;;5054308;28;20025;-66
2022/04/13 00:30:50;;;;;;;7.20;4.10;;;14.70;99.90;;;;;;5036437;28;20552;-67
2022/04/13 00:33:15;;;;;;;8.13;4.63;;;14.70;99.90;;;;;;5036083;28;20036;-66
2022/04/13 00:35:41;;;;;;;9.47;3.87;;;14.70;99.90;;;;;;5036363;28;20321;-66
2022/04/13 00:38:07;;;;;;;6.93;3.70;;;14.60;99.90;;;;;;5036302;28;20035;-67
2022/04/13 00:40:36;;;;;;;8.45;4.32;;;14.60;99.90;;;;;;5055092;28;20032;-66
2022/04/13 00:43:02;;;;;;;7.25;3.85;;;14.70;99.90;;;;;;5054670;28;20465;-66
2022/04/13 00:45:27;;;;;;;7.87;4.63;;;14.70;99.90;;;;;;5036087;28;20053;-66
2022/04/13 00:47:53;;;;;;;5.83;4.00;;;14.60;99.90;;;;;;5054642;28;20302;-66
2022/04/13 00:50:20;;;;;;;7.32;4.10;;;14.60;99.90;;;;;;5053988;28;20025;-66
2022/04/13 00:52:47;;;;;;;11.52;4.43;;;14.60;99.90;;;;;;5053437;28;20063;-66
2022/04/13 00:55:14;;;;;;;7.63;3.88;;;14.60;99.90;;;;;;5054031;28;20029;-66
2022/04/13 00:57:42;;;;;;;7.47;3.72;;;14.80;99.90;;;;;;5035799;28;20025;-66
2022/04/13 01:00:12;;;;;;;6.85;4.20;;;14.90;99.90;;;;;;5053581;28;20036;-67
2022/04/13 01:02:38;;;;;;;6.90;3.72;;;14.70;99.90;;;;;;5053624;28;20448;-66
2022/04/13 01:05:06;;;;;;;6.70;3.80;;;14.70;99.90;;;;;;5053797;28;20096;-66
2022/04/13 01:07:33;;;;;;;6.05;3.53;;;14.60;99.90;;;;;;5053730;28;20072;-66
2022/04/13 01:10:00;;;;;;;9.00;4.10;;;14.50;99.90;;;;;;5052964;28;20067;-66
2022/04/13 01:12:26;;;;;;;8.18;3.33;;;14.50;99.90;;;;;;5035982;28;20455;-66
2022/04/13 01:14:52;;;;;;;6.63;3.83;;;14.60;99.90;;;;;;5053304;28;20048;-66
2022/04/13 01:17:18;;;;;;;7.72;3.40;;;14.70;99.90;;;;;;5053565;28;20095;-66
2022/04/13 01:19:46;;;;;;;6.60;3.30;;;14.60;99.90;;;;;;5053164;28;20107;-67
2022/04/13 01:22:25;;;;;;;5.65;3.47;;;14.60;99.90;;;;;;5053248;28;20499;-66
2022/04/13 01:24:51;;;;;;;7.30;3.60;;;14.70;99.90;;;;;;5053322;28;20032;-66
2022/04/13 01:27:17;;;;;;;8.25;3.35;;;14.80;99.90;;;;;;5053532;28;20032;-66
2022/04/13 01:29:44;;;;;;;5.75;2.75;;;14.80;99.90;;;;;;5053352;28;20029;-66
2022/04/13 01:32:11;;;;;;;6.78;3.05;;;14.80;99.90;;;;;;5053129;28;20151;-66
2022/04/13 01:34:45;;;;;;;6.28;3.05;;;14.70;99.90;;;;;;5053320;28;20025;-66
2022/04/13 01:37:10;;;;;;;6.82;3.15;;;14.70;99.90;;;;;;5053242;28;20044;-67
2022/04/13 01:39:36;;;;;;;5.27;2.60;;;14.60;99.90;;;;;;5053174;28;20390;-67
2022/04/13 01:42:01;;;;;;;7.93;2.93;;;14.60;99.90;;;;;;5034995;28;20029;-67
2022/04/13 01:44:27;;;;;;;8.77;3.03;;;14.70;99.90;;;;;;5053134;28;20021;-67
2022/04/13 01:46:52;;;;;;;5.60;2.77;;;14.70;99.90;;;;;;5053174;28;20033;-67
2022/04/13 01:49:18;;;;;;;7.33;3.00;;;14.60;99.90;;;;;;5035162;28;20033;-67
2022/04/13 01:51:43;;;;;;;6.87;2.93;;;14.60;99.90;;;;;;5053067;28;20287;-67
2022/04/13 01:54:09;;;;;;;8.07;3.00;;;14.50;99.90;;;;;;5029031;23;20038;-62
2022/04/13 01:56:35;;;;;;;5.80;2.63;;;14.50;99.90;;;;;;5016323;28;20253;-62
2022/04/13 01:59:01;;;;;;;7.43;3.20;;;14.50;99.90;;;;;;4998786;28;20049;-62
2022/04/13 02:01:27;;;;;;;7.85;2.55;;;14.50;99.90;;;;;;5016314;28;20018;-61
2022/04/13 02:03:53;;;;;;;8.13;3.25;;;14.50;99.90;;;;;;5016646;28;20022;-62
2022/04/13 02:06:19;;;;;;;6.07;3.23;;;14.50;99.90;;;;;;5016047;28;20026;-63
2022/04/13 02:08:45;;;;;;;;;;;14.70;99.90;;;;;;5017325;28;20029;-63
2022/04/13 02:11:10;;;;;;;5.95;2.42;;;14.60;99.90;;;;;;5016957;28;19906;-62
2022/04/13 02:13:36;;;;;;;4.30;2.60;;;14.60;99.90;;;;;;5016327;28;20026;-62
2022/04/13 02:16:01;;;;;;;11.20;3.57;;;14.60;99.90;;;;;;5017150;28;20030;-63
2022/04/13 02:18:27;;;;;;;5.75;3.20;;;14.50;99.90;;;;;;4999222;28;20029;-62
2022/04/13 02:20:52;;;;;;;5.63;3.00;;;14.60;99.90;;;;;;5015911;28;20038;-62
2022/04/13 02:23:18;;;;;;;5.93;2.50;;;14.50;99.90;;;;;;5019368;28;20022;-62
2022/04/13 02:25:44;;;;;;;4.30;2.60;;;14.50;99.90;;;;;;5020122;28;20575;-61
2022/04/13 02:28:09;;;;;;;9.13;2.95;;;14.40;99.90;;;;;;5020050;28;20030;-62
2022/04/13 02:30:35;;;;;;;3.93;2.40;;;14.40;99.90;;;;;;5020478;28;20042;-61
2022/04/13 02:33:01;;;;;;;8.30;3.00;;;14.40;99.90;;;;;;5022823;28;20036;-61
2022/04/13 02:35:27;;;;;;;4.90;2.58;;;14.50;99.90;;;;;;5024668;28;20030;-63
2022/04/13 02:37:53;;;;;;;5.55;2.30;;;14.40;99.90;;;;;;5021585;28;20433;-63
2022/04/13 02:40:19;;;;;;;8.27;2.43;;;14.30;99.90;;;;;;5002587;28;20461;-62
2022/04/13 02:42:45;;;;;;;5.63;2.60;;;14.20;99.90;;;;;;5020028;28;20025;-62
2022/04/13 02:45:11;;;;;;;5.65;2.50;;;14.20;99.90;;;;;;5002201;28;20018;-63
2022/04/13 02:47:36;;;;;;;8.20;2.50;;;14.20;99.90;;;;;;5019441;28;20523;-62
2022/04/13 02:50:03;;;;;;;4.88;2.50;;;14.10;99.90;;;;;;5019498;28;20086;-62
2022/04/13 02:52:29;;;;;;;5.40;2.95;;;14.20;99.90;;;;;;5018465;28;20022;-61
2022/04/13 02:54:56;;;;;;;3.93;2.57;;;14.10;99.90;;;;;;5018893;28;20030;-62
2022/04/13 02:57:22;;;;;;;5.07;3.03;;;14.10;99.90;;;;;;5019246;28;20279;-61
2022/04/13 02:59:48;;;;;;;5.00;2.30;;;14.00;99.90;;;;;;5019225;28;20057;-62
2022/04/13 03:02:18;;;;;;;6.45;2.65;;;14.00;99.90;;;;;;5019270;28;20048;-61
2022/04/13 03:04:46;;;;;;;6.25;2.83;;;13.90;99.90;;;;;;5018002;28;20029;-62
2022/04/13 03:07:14;;;;;;;7.22;3.30;;;13.90;99.90;;;;;;5018615;28;20026;-62
2022/04/13 03:09:40;;;;;;;4.95;2.70;;;13.80;99.90;;;;;;5018847;28;20022;-62
2022/04/13 03:12:07;;;;;;;7.80;2.53;;;13.70;99.90;;;;;;5018950;28;20033;-62
2022/04/13 03:14:33;;;;;;;4.05;2.53;;;13.70;99.90;;;;;;5001586;28;20045;-62
2022/04/13 03:16:59;;;;;;;5.43;2.63;;;13.70;99.90;;;;;;5001712;28;20026;-61
2022/04/13 03:19:25;;;;;;;4.77;2.67;;;13.60;99.90;;;;;;5018953;28;20030;-61
2022/04/13 03:21:53;;;;;;;5.57;2.47;;;13.60;99.90;;;;;;5000478;28;20371;-62
2022/04/13 03:24:19;;;;;;;10.43;2.65;;;13.60;99.90;;;;;;5018962;28;20084;-61
2022/04/13 03:26:44;;;;;;;7.70;2.42;;;13.60;99.90;;;;;;5019215;28;20105;-62
2022/04/13 03:29:10;;;;;;;8.83;3.07;;;13.50;99.90;;;;;;5019306;28;20073;-62
2022/04/13 03:31:36;;;;;;;5.17;2.47;;;13.40;99.90;;;;;;5018746;28;20033;-61
2022/04/13 03:34:01;;;;;;;6.47;2.45;;;13.40;99.90;;;;;;5017574;28;20022;-60
2022/04/13 03:36:27;;;;;;;7.43;2.70;;;13.40;99.90;;;;;;5017555;28;20040;-61
2022/04/13 03:38:53;;;;;;;6.00;2.88;;;13.30;99.90;;;;;;5018277;28;20037;-62
2022/04/13 03:41:18;;;;;;;4.68;2.58;;;13.30;99.90;;;;;;5018130;28;20034;-62
2022/04/13 03:43:44;;;;;;;11.57;2.97;;;13.30;99.90;;;;;;5018740;28;20021;-62
2022/04/13 03:46:10;;;;;;;6.07;2.58;;;13.20;99.90;;;;;;5020768;28;20053;-62
2022/04/13 03:48:35;;;;;;;8.23;2.63;;;13.20;99.90;;;;;;5023987;28;20030;-62
2022/04/13 03:51:01;;;;;;;7.30;2.93;;;13.10;99.90;;;;;;5020906;28;20556;-62
2022/04/13 03:53:26;;;;;;;4.77;2.73;;;13.10;99.90;;;;;;5024416;28;20048;-62
2022/04/13 03:55:52;;;;;;;4.90;2.40;;;13.10;99.90;;;;;;5007256;28;20037;-61
2022/04/13 03:58:18;;;;;;;5.93;2.57;;;13.10;99.90;;;;;;5024931;28;20053;-61
2022/04/13 04:00:44;;;;;;;5.63;2.80;;;13.10;99.90;;;;;;5019879;28;20034;-61
2022/04/13 04:03:09;;;;;;;5.75;2.58;;;13.10;99.90;;;;;;5018072;28;20069;-61
2022/04/13 04:05:35;;;;;;;6.37;2.57;;;13.10;99.90;;;;;;5018156;28;20022;-62
2022/04/13 04:08:00;;;;;;;6.25;2.60;;;13.00;99.90;;;;;;5017472;28;20439;-61
2022/04/13 04:10:26;;;;;;;4.60;2.90;;;13.00;99.90;;;;;;5017643;28;20038;-62
2022/04/13 04:12:51;;;;;;;5.23;2.80;;;12.90;99.90;;;;;;5017744;28;20101;-63
2022/04/13 04:15:17;;;;;;;6.33;3.30;;;12.90;99.90;;;;;;5000209;28;20036;-62
2022/04/13 04:17:43;;;;;;;7.93;3.33;;;12.90;99.90;;;;;;5016910;28;20269;-62
2022/04/13 04:20:09;;;;;;;5.10;3.13;;;12.90;99.90;;;;;;5016907;28;20057;-61
2022/04/13 04:22:35;;;;;;;7.38;2.80;;;12.90;99.90;;;;;;4999290;28;20044;-61
2022/04/13 04:25:05;;;;;;;6.10;2.97;;;12.90;99.90;;;;;;4999590;28;20476;-62
2022/04/13 04:27:31;;;;;;;7.22;3.38;;;12.90;99.90;;;;;;5017352;28;20058;-61
2022/04/13 04:29:57;;;;;;;7.55;2.67;;;12.90;99.90;;;;;;5017070;28;20073;-62
2022/04/13 04:32:22;;;;;;;7.60;2.77;;;12.90;99.90;;;;;;5016912;28;20456;-62
2022/04/13 04:34:48;;;;;;;6.43;2.58;;;12.90;99.90;;;;;;5016283;28;20269;-61
2022/04/13 04:37:14;;;;;;;10.57;3.77;;;12.80;99.90;;;;;;4999416;28;20392;-61
2022/04/13 04:39:39;;;;;;;5.20;2.70;;;12.80;99.90;;;;;;5017716;28;20129;-62
2022/04/13 04:42:05;;;;;;;5.57;2.73;;;12.80;99.90;;;;;;5017411;28;20061;-62
2022/04/13 04:44:31;;;;;;;11.52;3.60;;;12.70;99.90;;;;;;5016984;28;20106;-62
2022/04/13 04:46:57;;;;;;;10.45;3.30;;;12.80;99.90;;;;;;5017369;28;20049;-62
2022/04/13 04:49:22;;;;;;;6.20;3.00;;;12.80;99.90;;;;;;4999341;28;20026;-61
2022/04/13 04:51:48;;;;;;;8.77;3.03;;;12.70;99.90;;;;;;4998917;28;20531;-61
2022/04/13 04:54:13;;;;;;;5.57;2.70;;;12.70;99.90;;;;;;5016437;28;20033;-62
2022/04/13 04:56:39;;;;;;;6.63;2.73;;;12.70;99.90;;;;;;4997489;28;20473;-61
2022/04/13 04:59:05;;;;;;;6.45;3.30;;;12.70;99.90;;;;;;5014042;28;20084;-62
2022/04/13 05:01:30;;;;;;;6.10;2.97;;;12.70;99.90;;;;;;5014154;28;20045;-62
2022/04/13 05:03:56;;;;;;;7.28;3.95;;;12.70;99.90;;;;;;4997466;28;20022;-60
2022/04/13 05:06:25;;;;;;;8.87;2.93;;;12.60;99.90;;;;;;4997573;28;20018;-63
2022/04/13 05:08:51;;;;;;;13.68;3.10;;;12.70;99.90;;;;;;4998289;28;20026;-62
2022/04/13 05:11:17;;;;;;;5.90;2.58;;;12.70;99.90;;;;;;5016835;28;20030;-63
2022/04/13 05:13:45;;;;;;;8.43;3.15;;;12.70;99.90;;;;;;5015928;28;20030;-61
2022/04/13 05:16:14;;;;;;;9.02;3.15;;;12.70;99.90;;;;;;5016041;28;20032;-61
2022/04/13 05:18:41;;;;;;;8.05;3.00;;;12.80;99.90;;;;;;5015712;28;20029;-63
2022/04/13 05:21:07;;;;;;;11.60;2.95;;;12.70;99.90;;;;;;4998445;28;20033;-61
2022/04/13 05:23:33;;;;;;;7.78;2.97;;;12.70;99.90;;;;;;5015834;28;20072;-62
2022/04/13 05:25:59;;;;;;;5.07;2.93;;;12.80;99.90;;;;;;5014700;28;20030;-63
2022/04/13 05:28:24;;;;;;;9.10;3.27;;;12.80;99.90;;;;;;4996747;28;20336;-63
2022/04/13 05:30:50;;;;;;;8.00;3.43;;;12.90;99.90;;;;;;5015264;28;20068;-63
2022/04/13 05:33:15;;;;;;;9.03;2.73;;;12.90;99.90;;;;;;5015810;28;20030;-61
2022/04/13 05:35:41;;;;;;;4.20;2.40;;;12.90;99.90;;;;;;5000520;28;20032;-60
2022/04/13 05:38:07;;;;;;;11.02;3.28;;;12.90;99.90;;;;;;5016482;28;20033;-61
2022/04/13 05:40:33;;;;;;;12.90;5.22;;;13.00;99.90;;;;;;4995742;28;20026;-62
2022/04/13 05:42:59;;;;;;;12.88;5.60;;;13.00;99.90;;;;;;5013794;28;20041;-61
2022/04/13 05:45:25;;;;;;;5.70;2.83;;;13.10;99.90;;;;;;5013674;28;20038;-61
2022/04/13 05:47:50;;;;;;;14.18;3.22;;;13.10;99.90;;;;;;5013384;28;20026;-62
2022/04/13 05:50:16;;;;;;;9.13;2.97;;;13.20;99.90;;;;;;5013212;28;20392;-60
2022/04/13 05:52:43;;;;;;;8.33;3.10;;;13.30;99.90;;;;;;5013390;28;20457;-61
2022/04/13 05:55:09;;;;;;;6.68;2.63;;;13.40;99.90;;;;;;4996128;28;20435;-61
2022/04/13 05:57:34;;;;;;;7.07;3.22;;;13.50;99.90;;;;;;5000100;28;20104;-61
2022/04/13 06:00:00;;;;;;;7.37;3.07;;;13.60;99.90;;;;;;5017675;28;20034;-62
2022/04/13 06:02:25;;;;;;;7.70;3.17;;;13.70;99.90;;;;;;5017675;28;20073;-62
2022/04/13 06:04:51;;;;;;;7.83;3.50;;;13.80;99.90;;;;;;5017215;28;20396;-63
2022/04/13 06:07:17;;;;;;;14.38;3.22;;;13.80;99.90;;;;;;5017191;28;20261;-63
2022/04/13 06:09:43;;;;;;;6.00;2.88;;;14.00;99.90;;;;;;5017278;28;20022;-64
2022/04/13 06:12:09;;;;;;;8.30;2.70;;;14.10;99.90;;;;;;5017523;28;20029;-61
2022/04/13 06:14:34;;;;;;;5.25;2.70;;;14.20;99.90;;;;;;5016731;28;20030;-61
2022/04/13 06:17:00;;;;;;;8.07;3.97;;;14.50;99.90;;;;;;5016972;28;20059;-62
2022/04/13 06:19:26;;;;;;;7.72;3.10;;;14.50;99.90;;;;;;5016657;28;20412;-62
2022/04/13 06:21:51;;;;;;;9.73;3.20;;;14.60;99.90;;;;;;5016851;28;20042;-61
2022/04/13 06:24:17;;;;;;;7.33;3.10;;;14.60;99.90;;;;;;5016679;28;20022;-61
2022/04/13 06:26:42;;;;;;;6.22;3.85;;;14.70;99.90;;;;;;5016748;28;20432;-62
2022/04/13 06:29:08;;;;;;;12.95;3.65;;;14.70;99.90;;;;;;5017060;28;20073;-63
2022/04/13 06:31:34;;;;;;;13.93;4.68;;;14.90;99.90;;;;;;5017677;28;20392;-63
2022/04/13 06:34:00;;;;;;;12.32;3.45;;;14.90;99.90;;;;;;5017783;28;20076;-64
2022/04/13 06:36:25;;;;;;;13.63;3.75;;;15.00;99.90;;;;;;5017684;28;20040;-63
2022/04/13 06:38:51;;;;;;;10.82;3.53;;;15.10;99.90;;;;;;5001921;28;20022;-63
2022/04/13 06:41:16;;;;;;;6.93;4.10;;;15.20;99.90;;;;;;5023647;28;20030;-62
2022/04/13 06:43:42;;;;;;;7.82;3.58;;;15.30;99.90;;;;;;5021806;28;20081;-64
2022/04/13 06:46:09;;;;;;;9.13;3.33;;;15.30;99.90;;;;;;5023709;28;20025;-64
2022/04/13 06:48:35;;;;;;;9.23;3.78;;;15.40;99.90;;;;;;5024500;28;20319;-64
2022/04/13 06:51:02;;;;;;;11.95;3.97;;;15.50;99.90;;;;;;5022571;28;20030;-66
2022/04/13 06:53:28;;;;;;;12.52;4.18;;;15.50;99.90;;;;;;5019998;28;20038;-66
2022/04/13 06:55:54;;;;;;;7.82;3.70;;;15.60;99.90;;;;;;5018804;28;20053;-63
2022/04/13 06:58:19;;;;;;;9.63;3.60;;;15.70;99.90;;;;;;5019240;28;20439;-64
2022/04/13 07:00:46;;;;;;;17.25;5.80;;;15.70;99.90;;;;;;5022347;28;20443;-64
2022/04/13 07:03:11;;;;;;;;;;;15.80;99.90;;;;;;5025332;28;20038;-64
2022/04/13 07:05:37;;;;;;;10.43;3.83;;;15.80;99.90;;;;;;5026154;28;19906;-64
2022/04/13 07:08:04;;;;;;;8.38;4.00;;;15.90;99.90;;;;;;5023187;28;20018;-65
2022/04/13 07:10:32;;;;;;;10.90;4.25;;;15.90;99.90;;;;;;5019786;28;20028;-65
2022/04/13 07:12:58;;;;;;;11.57;4.22;;;16.00;99.90;;;;;;5019233;28;20037;-66
2022/04/13 07:15:24;;;;;;;12.88;4.07;;;16.10;99.90;;;;;;5019966;28;20388;-65
2022/04/13 07:17:50;;;;;;;10.25;3.92;;;16.10;99.90;;;;;;5018685;28;20033;-65
2022/04/13 07:20:17;;;;;;;8.60;3.50;;;16.30;99.90;;;;;;5000472;28;20041;-66
2022/04/13 07:22:47;;;;;;;11.15;3.50;;;16.40;99.90;;;;;;5016693;28;20061;-63
2022/04/13 07:25:13;;;;;;;14.10;4.53;;;16.50;99.90;;;;;;5015714;28;20097;-62
2022/04/13 07:27:39;;;;;;;10.48;4.00;;;16.60;99.90;;;;;;5015942;28;20420;-64
2022/04/13 07:30:06;;;;;;;9.77;3.70;;;16.70;99.90;;;;;;5015412;28;20037;-65
2022/04/13 07:32:31;;;;;;;;;;;16.90;99.90;;;;;;5016094;28;20116;-66
2022/04/13 07:35:02;;;;;;;12.57;4.43;;;17.10;99.90;;;;;;5015575;28;20306;-65
2022/04/13 07:37:28;;;;;;;9.75;3.72;;;17.10;99.90;;;;;;5015413;28;20026;-65
2022/04/13 07:39:54;;;;;;;7.78;3.80;;;17.30;99.90;;;;;;5015715;28;20026;-64
2022/04/13 07:42:24;;;;;;;15.70;4.30;;;17.50;99.90;;;;;;5000833;28;20053;-62
2022/04/13 07:44:51;;;;;;;12.43;4.40;;;17.50;99.90;;;;;;5016797;28;20037;-64
2022/04/13 07:47:16;;;;;;;9.90;4.20;;;17.60;99.90;;;;;;5016945;28;20037;-64
2022/04/13 07:49:43;;;;;;;9.85;4.25;;;17.70;99.90;;;;;;5016112;28;20026;-65
2022/04/13 07:52:09;;;;;;;6.30;4.20;;;17.90;99.90;;;;;;5015315;28;20030;-65
2022/04/13 07:54:35;;;;;;;11.00;4.18;;;18.10;99.90;;;;;;4997375;28;20171;-65
2022/04/13 07:57:02;;;;;;;11.05;4.20;;;18.30;99.90;;;;;;5014991;28;20128;-67
2022/04/13 07:59:27;;;;;;;11.98;4.32;;;18.50;99.90;;;;;;5017194;28;20045;-64
2022/04/13 08:01:54;;;;;;;10.15;4.85;;;18.70;99.30;;;;;;5019451;28;20361;-67
2022/04/13 08:04:21;;;;;;;15.73;4.32;;;18.90;98.80;;;;;;4997279;28;20034;-67
2022/04/13 08:06:46;;;;;;;11.98;4.25;;;19.00;97.30;;;;;;5014903;28;20124;-61
2022/04/13 08:09:12;;;;;;;12.13;3.72;;;19.20;96.50;;;;;;5015128;28;20038;-63
2022/04/13 08:11:38;;;;;;;11.23;3.50;;;19.30;95.80;;;;;;5014546;28;20065;-62
2022/04/13 08:14:04;;;;;;;12.70;3.00;;;19.60;95.00;;;;;;5015414;28;20037;-65
2022/04/13 08:16:29;;;;;;;7.50;3.35;;;19.70;94.90;;;;;;5015427;28;20026;-64
2022/04/13 08:18:55;;;;;;;17.98;4.25;;;19.70;94.50;;;;;;5014988;28;20125;-63
2022/04/13 08:21:20;;;;;;;11.07;4.47;;;19.80;94.00;;;;;;5064485;23;20157;-68
2022/04/13 08:23:46;;;;;;;13.02;4.00;;;19.90;93.30;;;;;;5060093;28;20021;-70
2022/04/13 08:26:12;;;;;;;11.00;4.03;;;20.10;93.10;;;;;;5056871;28;20563;-69
2022/04/13 08:28:37;;;;;;;10.93;4.10;;;20.20;92.30;;;;;;5054640;28;20024;-73
2022/04/13 08:31:04;;;;;;;8.93;3.60;;;20.60;91.50;;;;;;5054185;28;20091;-70
2022/04/13 08:33:30;;;;;;;8.63;3.95;;;21.50;90.10;;;;;;5054317;28;20086;-68
2022/04/13 08:35:56;;;;;;;11.05;3.50;;;22.60;86.30;;;;;;5054090;28;20033;-69
2022/04/13 08:38:22;;;;;;;8.30;3.08;;;23.40;81.50;;;;;;5053938;28;20116;-69
2022/04/13 08:40:51;;;;;;;;;;;24.30;75.80;;;;;;5054155;28;20036;-70
2022/04/13 08:43:22;;;;;;;11.55;3.30;;;24.90;69.30;;;;;;5054362;28;20428;-70
2022/04/13 08:45:57;;;;;;;7.03;2.20;;;25.80;65.30;;;;;;5055326;28;20029;-70
2022/04/13 08:48:24;;;;;;;3.85;1.80;;;26.50;58.50;;;;;;5054719;28;20017;-70
2022/04/13 08:50:58;;;;;;;6.15;2.83;;;26.90;55.40;;;;;;5054135;28;20021;-70
2022/04/13 08:53:30;;;;;;;7.53;2.40;;;27.50;55.80;;;;;;5054279;28;20112;-70
2022/04/13 08:55:57;;;;;;;3.75;2.10;;;27.40;54.80;;;;;;5057198;28;20025;-70
2022/04/13 08:58:51;;;;;;;7.00;1.85;;;27.50;54.10;;;;;;5055472;28;20071;-70
2022/04/13 09:01:36;;;;;;;8.25;3.55;;;28.10;52.20;;;;;;5054039;28;20504;-70
2022/04/13 09:04:07;;;;;;;5.40;2.20;;;28.70;51.70;;;;;;5054145;28;20025;-69
2022/04/13 09:06:34;;;;;;;7.32;2.33;;;29.40;50.20;;;;;;5053468;28;20383;-69
2022/04/13 09:09:01;;;;;;;5.85;2.30;;;29.30;50.60;;;;;;5052902;28;20024;-69
2022/04/13 09:11:30;;;;;;;5.68;2.40;;;29.60;51.50;;;;;;5052983;28;20052;-69
2022/04/13 09:13:57;;;;;;;3.92;2.10;;;30.20;49.60;;;;;;5053043;28;20032;-69
2022/04/13 09:16:23;;;;;;;8.75;5.63;;;30.40;49.20;;;;;;5053327;28;20029;-71
2022/04/13 09:18:49;;;;;;;4.72;2.80;;;30.00;49.00;;;;;;5053158;28;20028;-69
2022/04/13 09:21:17;;;;;;;5.38;1.90;;;30.40;48.70;;;;;;5056082;28;20349;-69
2022/04/13 09:23:43;;;;;;;8.27;1.73;;;29.90;48.30;;;;;;5036120;28;20029;-69
2022/04/13 09:26:10;;;;;;;4.00;2.15;;;30.00;48.90;;;;;;5053209;28;20025;-69
2022/04/13 09:28:37;;;;;;;8.68;2.03;;;30.30;48.50;;;;;;5054277;28;20068;-70
2022/04/13 09:31:03;;;;;;;6.63;1.80;;;30.90;47.50;;;;;;5056034;28;20025;-70
2022/04/13 09:33:29;;;;;;;6.43;2.00;;;31.50;46.60;;;;;;5053732;28;20029;-70
2022/04/13 09:35:55;;;;;;;7.38;1.70;;;31.90;46.10;;;;;;5035019;28;20155;-70
2022/04/13 09:38:21;;;;;;;5.88;1.95;;;32.40;45.20;;;;;;5052765;28;20432;-68
2022/04/13 09:40:48;;;;;;;13.07;1.80;;;32.60;44.60;;;;;;5052870;28;20029;-68
2022/04/13 09:43:16;;;;;;;4.53;1.65;;;31.50;45.00;;;;;;5052956;28;20383;-72
2022/04/13 09:45:51;;;;;;;4.32;1.38;;;31.40;44.90;;;;;;5035815;28;20116;-70
2022/04/13 09:48:18;;;;;;;8.55;2.42;;;32.10;44.30;;;;;;5052928;28;20379;-67
2022/04/13 09:50:45;;;;;;;5.70;2.10;;;32.40;44.30;;;;;;5052378;28;20035;-68
2022/04/13 09:53:12;;;;;;;9.13;1.77;;;31.40;45.10;;;;;;5052573;28;20120;-68
2022/04/13 09:55:39;;;;;;;5.93;2.17;;;31.60;43.90;;;;;;5053246;28;20448;-68
2022/04/13 09:58:06;;;;;;;6.97;2.22;;;31.80;44.40;;;;;;5052658;28;20025;-68
2022/04/13 10:00:33;;;;;;;30.25;3.47;;;32.10;43.70;;;;;;5052296;28;20025;-67
2022/04/13 10:03:09;;;;;;;5.97;2.00;;;31.90;44.30;;;;;;5035446;28;20096;-67
2022/04/13 10:05:35;;;;;;;6.03;1.88;;;32.60;43.90;;;;;;5052570;28;20025;-66
2022/04/13 10:08:02;;;;;;;7.22;2.08;;;33.40;43.90;;;;;;5034297;28;20116;-67
2022/04/13 10:10:28;;;;;;;6.40;2.25;;;32.80;44.00;;;;;;5034437;28;20075;-67
2022/04/13 10:12:54;;;;;;;7.63;1.92;;;33.20;43.30;;;;;;5052616;28;20025;-67
2022/04/13 10:15:20;;;;;;;4.70;2.00;;;32.60;44.30;;;;;;5052463;28;20067;-67
2022/04/13 10:17:46;;;;;;;5.22;2.25;;;33.10;42.70;;;;;;5052476;28;20033;-67
2022/04/13 10:20:11;;;;;;;10.15;2.85;;;33.70;43.30;;;;;;5052269;28;20402;-67
2022/04/13 10:22:57;;;;;;;5.15;1.80;;;33.50;43.10;;;;;;5052265;28;20494;-68
2022/04/13 10:25:26;;;;;;;8.02;2.30;;;33.40;42.10;;;;;;5052153;28;20024;-68
2022/04/13 10:27:57;;;;;;;4.85;1.92;;;33.20;42.90;;;;;;5052567;28;20021;-67
2022/04/13 10:30:36;;;;;;;4.32;1.77;;;33.00;42.30;;;;;;5056074;28;20103;-68
2022/04/13 10:33:08;;;;;;;5.63;1.60;;;32.80;43.70;;;;;;5040838;28;20025;-68
2022/04/13 10:35:38;;;;;;;3.55;1.60;;;32.50;42.90;;;;;;5058553;28;20021;-67
2022/04/13 10:38:04;;;;;;;4.72;1.63;;;32.60;42.60;;;;;;5054123;28;20029;-68
2022/04/13 10:40:32;;;;;;;5.18;1.73;;;32.60;43.30;;;;;;5053681;28;20036;-68
2022/04/13 10:43:05;;;;;;;8.52;2.38;;;31.90;44.00;;;;;;5053513;28;20025;-67
2022/04/13 10:45:35;;;;;;;3.38;1.80;;;32.30;43.30;;;;;;5056186;28;20099;-67
2022/04/13 10:48:05;;;;;;;12.50;2.38;;;32.60;42.50;;;;;;5055382;28;20492;-67
2022/04/13 10:50:46;;;;;;;6.95;1.60;;;32.70;43.10;;;;;;5037308;28;20037;-67
2022/04/13 10:53:21;;;;;;;3.25;1.70;;;32.20;41.90;;;;;;5055754;28;20025;-67
2022/04/13 10:55:58;;;;;;;3.83;1.58;;;32.30;43.10;;;;;;5056146;28;20087;-66
2022/04/13 10:58:55;;;;;;;5.65;1.75;;;31.90;43.80;;;;;;5038257;28;20111;-67
2022/04/13 11:01:22;;;;;;;;;;;31.70;43.90;;;;;;5037996;28;20394;-66
2022/04/13 11:03:48;;;;;;;5.72;1.73;;;31.60;44.10;;;;;;5055808;28;19927;-67
2022/04/13 11:06:15;;;;;;;5.60;1.60;;;31.40;43.90;;;;;;5037425;28;20079;-67
2022/04/13 11:09:03;;;;;;;8.05;1.65;;;31.00;43.40;;;;;;5055865;28;20028;-66
2022/04/13 11:11:31;;;;;;;9.40;2.47;;;30.20;44.20;;;;;;5037066;28;20021;-69
2022/04/13 11:13:57;;;;;;;7.43;2.17;;;29.40;45.30;;;;;;5055789;28;20363;-67
2022/04/13 11:16:24;;;;;;;7.22;1.85;;;28.60;45.70;;;;;;5056758;28;20025;-68
2022/04/13 11:19:04;;;;;;;4.75;1.52;;;28.10;46.50;;;;;;5039879;28;20116;-69
2022/04/13 11:21:31;;;;;;;6.85;2.20;;;27.50;46.50;;;;;;5056338;28;20033;-68
2022/04/13 11:23:57;;;;;;;7.50;1.80;;;27.10;47.30;;;;;;5057938;28;20161;-68
2022/04/13 11:26:27;;;;;;;6.28;2.03;;;26.70;48.70;;;;;;5038717;28;20120;-67
2022/04/13 11:29:12;;;;;;;10.55;2.50;;;26.80;49.30;;;;;;5056618;28;20017;-68
2022/04/13 11:31:59;;;;;;;4.88;1.67;;;26.60;49.60;;;;;;5055972;28;20025;-68
2022/04/13 11:34:29;;;;;;;5.55;1.85;;;26.30;48.80;;;;;;5057062;28;20017;-68
2022/04/13 11:36:59;;;;;;;4.97;1.55;;;26.00;48.80;;;;;;5038794;28;20032;-67
2022/04/13 11:39:45;;;;;;;5.05;1.77;;;25.60;49.40;;;;;;5056294;28;20021;-67
2022/04/13 11:42:36;;;;;;;5.45;1.58;;;25.50;50.20;;;;;;5054903;28;20021;-67
2022/04/13 11:45:16;;;;;;;7.53;1.77;;;25.10;49.90;;;;;;5043675;28;20036;-67
2022/04/13 11:47:59;;;;;;;8.60;1.70;;;25.00;50.90;;;;;;5054741;28;20025;-67
2022/04/13 11:50:33;;;;;;;6.47;1.70;;;24.70;51.40;;;;;;5055073;28;20021;-67
2022/04/13 11:53:03;;;;;;;6.63;1.85;;;24.50;52.00;;;;;;5055805;28;20031;-68
2022/04/13 11:55:39;;;;;;;4.40;1.85;;;24.30;51.30;;;;;;5055302;28;20051;-68
2022/04/13 11:58:06;;;;;;;4.93;1.60;;;24.20;52.70;;;;;;5054959;28;20029;-68
2022/04/13 12:00:35;;;;;;;6.10;1.85;;;24.20;52.20;;;;;;5037167;28;20406;-68
2022/04/13 12:03:01;;;;;;;6.78;2.70;;;24.20;51.80;;;;;;5056464;28;20032;-69
2022/04/13 12:05:27;;;;;;;8.20;2.00;;;24.10;52.10;;;;;;5056455;28;20024;-68
2022/04/13 12:07:53;;;;;;;;;;;24.20;52.40;;;;;;5037067;28;20029;-69
2022/04/13 12:10:19;;;;;;;10.75;2.67;;;24.20;53.90;;;;;;5055384;28;20027;-67
2022/04/13 12:12:55;;;;;;;;;;;24.30;52.40;;;;;;5054690;28;20079;-67
2022/04/13 12:15:20;;;;;;;8.05;2.33;;;24.30;54.10;;;;;;5036998;28;19905;-67
2022/04/13 12:17:46;;;;;;;;;;;24.10;53.50;;;;;;5037007;28;20105;-69
2022/04/13 12:20:28;;;;;;;6.15;1.90;;;24.20;52.30;;;;;;5053984;28;19908;-67
2022/04/13 12:22:53;;;;;;;4.63;1.90;;;24.20;52.50;;;;;;5055427;28;20418;-68
2022/04/13 12:25:19;;;;;;;;;;;24.20;52.10;;;;;;5056002;28;20089;-68
2022/04/13 12:28:06;;;;;;;6.43;1.60;;;23.90;52.40;;;;;;5054646;28;20031;-68
2022/04/13 12:30:32;;;;;;;5.43;1.63;;;24.00;52.80;;;;;;5036064;28;20029;-68
2022/04/13 12:32:57;;;;;;;;;;;24.00;52.70;;;;;;5054395;28;20142;-68
2022/04/13 12:35:23;;;;;;;8.13;1.77;;;24.00;53.80;;;;;;5035703;28;20370;-68
2022/04/13 12:37:55;;;;;;;;;;;24.00;53.00;;;;;;5036085;28;20025;-68
2022/04/13 12:40:26;;;;;;;7.93;1.73;;;24.00;54.80;;;;;;5053393;28;19927;-68
2022/04/13 12:42:52;;;;;;;13.52;1.92;;;24.10;53.00;;;;;;5053730;28;20096;-67
2022/04/13 12:45:19;;;;;;;5.97;2.00;;;24.20;53.70;;;;;;5053480;28;20028;-67
2022/04/13 12:47:46;;;;;;;2.65;1.20;;;24.20;53.50;;;;;;5053392;28;20475;-68
2022/04/13 12:50:12;;;;;;;6.18;1.67;;;24.30;53.40;;;;;;5053221;28;20056;-67